Time;durP1;ratioP1;P1;durP2;ratioP2;P2;SDS_P1;SDS_P2;PMS_P1;PMS_P2;Temp;Humidity;BMP_temperature;BMP_pressure;BME280_temperature;BME280_humidity;BME280_pressure;Samples;Min_cycle;Max_cycle;Signal;HPM_P1;HPM_P2
2022/01/29 00:00:56;;;;;;;;;;;;;;;-142.75;100.00;78935.13;4990242;28;19960;-68
2022/01/29 00:03:22;;;;;;;;;;;;;;;-142.75;100.00;78921.34;4991379;28;19920;-69
2022/01/29 00:05:48;;;;;;;;;;;;;;;-142.75;100.00;78919.38;4991346;28;19925;-68
2022/01/29 00:08:13;;;;;;;;;;;;;;;-142.75;100.00;78917.41;4991200;28;19914;-69
2022/01/29 00:10:40;;;;;;;;;;;;;;;-142.75;100.00;78909.53;4991393;28;19937;-68
2022/01/29 00:13:05;;;;;;;;;;;;;;;-142.75;100.00;78909.53;4991763;28;19976;-69
2022/01/29 00:15:30;;;;;;;;;;;;;;;-142.75;100.00;78915.44;4990306;28;19957;-68
2022/01/29 00:17:55;;;;;;;;;;;;;;;-142.75;100.00;78897.72;4990994;28;20268;-68
2022/01/29 00:20:20;;;;;;;;;;;;;;;-142.75;100.00;78897.72;4973984;28;19983;-68
2022/01/29 00:22:46;;;;;;;;;;;;;;;-142.75;100.00;78889.81;4991322;28;19913;-68
2022/01/29 00:25:11;;;;;;;;;;;;;;;-142.75;100.00;78893.78;4991193;28;19913;-69
2022/01/29 00:27:37;;;;;;;;;;;;;;;-142.75;100.00;78878.00;4991283;28;20036;-68
2022/01/29 00:30:13;;;;;;;;;;;;;;;-142.75;100.00;78874.06;4991945;28;19924;-68
2022/01/29 00:32:38;;;;;;;;;;;;;;;-142.75;100.00;78870.13;4977233;28;19921;-68
2022/01/29 00:35:04;;;;;;;;;;;;;;;-142.75;100.00;78872.09;4994786;28;19913;-68
2022/01/29 00:37:30;;;;;;;;;;;;;;;-142.75;100.00;78860.28;4994641;28;20383;-69
2022/01/29 00:39:55;;;;;;;;;;;;;;;-142.75;100.00;78866.19;4996545;28;19921;-68
2022/01/29 00:42:20;;;;;;;;;;;;;;;-142.75;100.00;78870.13;5014231;28;19913;-68
2022/01/29 00:44:45;;;;;;;;;;;;;;;-142.75;100.00;78868.16;5014079;28;19919;-68
2022/01/29 00:47:11;;;;;;;;;;;;;;;-142.75;100.00;78866.19;5014026;28;19927;-68
2022/01/29 00:49:36;;;;;;;;;;;;;;;-142.75;100.00;78874.06;5013709;28;19963;-68
2022/01/29 00:52:01;;;;;;;;;;;;;;;-142.75;100.00;78854.38;5012802;28;19914;-69
2022/01/29 00:54:27;;;;;;;;;;;;;;;-142.75;100.00;78854.38;5014037;28;20334;-68
2022/01/29 00:56:52;;;;;;;;;;;;;;;-142.75;100.00;78846.50;5013822;28;19921;-69
2022/01/29 00:59:17;;;;;;;;;;;;;;;-142.75;100.00;78850.44;5013593;28;19960;-68
2022/01/29 01:01:42;;;;;;;;;;;;;;;-142.75;100.00;78846.50;5013738;28;19917;-67
2022/01/29 01:04:08;;;;;;;;;;;;;;;-142.75;100.00;78846.50;5006291;28;19922;-68
2022/01/29 01:06:34;;;;;;;;;;;;;;;-142.75;100.00;78840.59;4994050;28;20008;-68
2022/01/29 01:08:59;;;;;;;;;;;;;;;-142.75;100.00;78850.44;4976560;28;20444;-68
2022/01/29 01:11:24;;;;;;;;;;;;;;;-142.75;100.00;78844.53;4994164;28;20356;-68
2022/01/29 01:13:49;;;;;;;;;;;;;;;-142.75;100.00;78844.53;4994093;28;19921;-68
2022/01/29 01:16:14;;;;;;;;;;;;;;;-142.75;100.00;78838.63;4993848;28;19918;-68
2022/01/29 01:18:40;;;;;;;;;;;;;;;-142.75;100.00;78830.75;4993629;28;19917;-67
2022/01/29 01:21:05;;;;;;;;;;;;;;;-142.75;100.00;78832.72;4993992;28;20291;-69
2022/01/29 01:23:30;;;;;;;;;;;;;;;-142.75;100.00;78813.00;4993864;28;19929;-68
2022/01/29 01:25:56;;;;;;;;;;;;;;;-142.75;100.00;78826.81;4993723;28;19944;-68
2022/01/29 01:28:21;;;;;;;;;;;;;;;-142.75;100.00;78822.88;4993620;28;20056;-68
2022/01/29 01:30:46;;;;;;;;;;;;;;;-142.75;100.00;78820.88;4993641;28;19996;-68
2022/01/29 01:33:11;;;;;;;;;;;;;;;-142.75;100.00;78811.03;4992481;28;20474;-68
2022/01/29 01:35:47;;;;;;;;;;;;;;;-142.75;100.00;78805.13;4993446;28;19914;-68
2022/01/29 01:38:18;;;;;;;;;;;;;;;-142.75;100.00;78807.09;4993418;28;20104;-69
2022/01/29 01:40:48;;;;;;;;;;;;;;;-142.75;100.00;78811.03;4993942;28;20315;-68
2022/01/29 01:43:13;;;;;;;;;;;;;;;-142.75;100.00;78816.94;4992763;28;20495;-68
2022/01/29 01:45:38;;;;;;;;;;;;;;;-142.75;100.00;78816.94;4993432;28;20026;-68
2022/01/29 01:48:06;;;;;;;;;;;;;;;-142.75;100.00;78809.06;4993174;28;20257;-68
2022/01/29 01:50:32;;;;;;;;;;;;;;;-142.75;100.00;78814.97;4993468;28;20403;-68
2022/01/29 01:52:57;;;;;;;;;;;;;;;-142.75;100.00;78807.09;4993289;28;19921;-68
2022/01/29 01:55:22;;;;;;;;;;;;;;;-142.75;100.00;78803.16;4993192;28;19923;-68
2022/01/29 01:57:48;;;;;;;;;;;;;;;-142.75;100.00;78795.28;4992907;28;19914;-67
2022/01/29 02:00:13;;;;;;;;;;;;;;;-142.75;100.00;78783.47;4993072;28;19918;-68
2022/01/29 02:02:38;;;;;;;;;;;;;;;-142.75;100.00;78785.44;4993176;28;19914;-68
2022/01/29 02:05:04;;;;;;;;;;;;;;;-142.75;100.00;78773.63;4991866;28;19913;-68
2022/01/29 02:07:30;;;;;;;;;;;;;;;-142.75;100.00;78763.78;4993425;28;19968;-68
2022/01/29 02:09:55;;;;;;;;;;;;;;;-142.75;100.00;78771.66;4992760;28;19921;-68
2022/01/29 02:12:20;;;;;;;;;;;;;;;-142.75;100.00;78767.72;4991716;28;20496;-68
2022/01/29 02:14:46;;;;;;;;;;;;;;;-142.75;100.00;78765.75;4992822;28;19925;-68
2022/01/29 02:17:11;;;;;;;;;;;;;;;-142.75;100.00;78757.88;4992863;28;19918;-68
2022/01/29 02:19:37;;;;;;;;;;;;;;;-142.75;100.00;78755.91;4992545;28;19913;-68
2022/01/29 02:22:02;;;;;;;;;;;;;;;-142.75;100.00;78742.09;4992864;28;20279;-68
2022/01/29 02:24:27;;;;;;;;;;;;;;;-142.75;100.00;78746.03;4975614;28;19928;-69
2022/01/29 02:26:53;;;;;;;;;;;;;;;-142.75;100.00;78742.09;4992495;28;19913;-69
2022/01/29 02:29:19;;;;;;;;;;;;;;;-142.75;100.00;78748.03;4974858;28;20016;-68
2022/01/29 02:31:55;;;;;;;;;;;;;;;-142.75;100.00;78750.00;4992540;28;19920;-68
2022/01/29 02:34:20;;;;;;;;;;;;;;;-142.75;100.00;78740.13;4992673;28;19955;-68
2022/01/29 02:36:46;;;;;;;;;;;;;;;-142.75;100.00;78736.19;4974929;28;19964;-68
2022/01/29 02:39:12;;;;;;;;;;;;;;;-142.75;100.00;78724.38;4992268;28;19913;-68
2022/01/29 02:41:43;;;;;;;;;;;;;;;-142.75;100.00;78722.41;4992364;28;19913;-68
2022/01/29 02:44:09;;;;;;;;;;;;;;;-142.75;100.00;78714.53;4992435;28;19968;-68
2022/01/29 02:49:12;;;;;;;;;;;;;;;-142.75;100.00;78718.47;4992173;28;19914;-68
2022/01/29 02:51:45;;;;;;;;;;;;;;;-142.75;100.00;78718.47;4974838;28;19920;-69
2022/01/29 02:54:10;;;;;;;;;;;;;;;-142.75;100.00;78710.59;4992154;28;19946;-68
2022/01/29 02:56:36;;;;;;;;;;;;;;;-142.75;100.00;78692.88;4974565;28;19918;-68
2022/01/29 02:59:01;;;;;;;;;;;;;;;-142.75;100.00;78696.81;5003813;28;19913;-68
2022/01/29 03:01:26;;;;;;;;;;;;;;;-142.75;100.00;78686.97;5011587;28;20286;-68
2022/01/29 03:03:51;;;;;;;;;;;;;;;-142.75;100.00;78686.97;5011837;28;19920;-68
2022/01/29 03:06:16;;;;;;;;;;;;;;;-142.75;100.00;78681.06;5011649;28;20272;-68
2022/01/29 03:08:41;;;;;;;;;;;;;;;-142.75;100.00;78677.13;5011221;28;20093;-68
2022/01/29 03:11:07;;;;;;;;;;;;;;;-142.75;100.00;78671.22;5011604;28;19913;-68
2022/01/29 03:13:32;;;;;;;;;;;;;;;-142.75;100.00;78673.19;5011503;28;19917;-69
2022/01/29 03:15:57;;;;;;;;;;;;;;;-142.75;100.00;78671.22;5011331;28;19917;-68
2022/01/29 03:18:23;;;;;;;;;;;;;;;-142.75;100.00;78663.31;5011309;28;19932;-67
2022/01/29 03:20:49;;;;;;;;;;;;;;;-142.75;100.00;78661.34;4993970;28;20302;-68
2022/01/29 03:23:14;;;;;;;;;;;;;;;-142.75;100.00;78651.50;5011397;28;19991;-68
2022/01/29 03:25:39;;;;;;;;;;;;;;;-142.75;100.00;78641.66;5011253;28;19949;-68
2022/01/29 03:28:04;;;;;;;;;;;;;;;-142.75;100.00;78641.66;5011087;28;20298;-68
2022/01/29 03:30:30;;;;;;;;;;;;;;;-142.75;100.00;78629.84;5011366;28;19917;-69
2022/01/29 03:32:55;;;;;;;;;;;;;;;-142.75;100.00;78631.81;5011404;28;20326;-68
2022/01/29 03:35:20;;;;;;;;;;;;;;;-142.75;100.00;78623.94;5011271;28;19927;-68
2022/01/29 03:37:45;;;;;;;;;;;;;;;-142.75;100.00;78627.88;5010960;28;19917;-68
2022/01/29 03:40:10;;;;;;;;;;;;;;;-142.75;100.00;78629.84;5011079;28;19913;-68
2022/01/29 03:42:58;;;;;;;;;;;;;;;-142.75;100.00;78621.97;5011289;28;19936;-68
2022/01/29 03:45:23;;;;;;;;;;;;;;;-142.75;100.00;78625.91;5011312;28;19925;-68
2022/01/29 03:47:48;;;;;;;;;;;;;;;-142.75;100.00;78616.06;5011044;28;19913;-68
2022/01/29 03:50:13;;;;;;;;;;;;;;;-142.75;100.00;78610.16;5011147;28;20401;-68
2022/01/29 03:52:38;;;;;;;;;;;;;;;-142.75;100.00;78606.22;4993488;28;19960;-68
2022/01/29 03:55:05;;;;;;;;;;;;;;;-142.75;100.00;78600.31;4990275;28;20047;-69
2022/01/29 03:57:30;;;;;;;;;;;;;;;-142.75;100.00;78598.34;4991549;28;20273;-69
2022/01/29 03:59:55;;;;;;;;;;;;;;;-142.75;100.00;78602.28;4991255;28;19920;-68
2022/01/29 04:02:20;;;;;;;;;;;;;;;-142.75;100.00;78592.44;4991582;28;19920;-68
2022/01/29 04:04:46;;;;;;;;;;;;;;;-142.75;100.00;78586.53;4990604;28;19920;-68
2022/01/29 04:07:12;;;;;;;;;;;;;;;-142.75;100.00;78582.59;4993976;28;19957;-69
2022/01/29 04:09:39;;;;;;;;;;;;;;;-142.75;100.00;78584.56;4994935;28;19920;-68
2022/01/29 04:12:04;;;;;;;;;;;;;;;-142.75;100.00;78576.66;4995257;28;19979;-68
2022/01/29 04:14:37;;;;;;;;;;;;;;;-142.75;100.00;78576.66;4995085;28;19945;-69
2022/01/29 04:17:04;;;;;;;;;;;;;;;-142.75;100.00;78570.75;4994966;28;19957;-68
2022/01/29 04:19:29;;;;;;;;;;;;;;;-142.75;100.00;78572.72;4994703;28;19920;-69
2022/01/29 04:21:54;;;;;;;;;;;;;;;-142.75;100.00;78574.69;4994979;28;20298;-68
2022/01/29 04:24:19;;;;;;;;;;;;;;;-142.75;100.00;78566.81;4995202;28;19914;-68
2022/01/29 04:26:45;;;;;;;;;;;;;;;-142.75;100.00;78570.75;4994718;28;19913;-68
2022/01/29 04:29:10;;;;;;;;;;;;;;;-142.75;100.00;78570.75;4994618;28;20395;-69
2022/01/29 04:34:31;;;;;;;;;;;;;;;-142.75;100.00;78570.75;4981785;28;19921;-69
2022/01/29 04:36:56;;;;;;;;;;;;;;;-142.75;100.00;78562.88;4994619;28;19921;-68
2022/01/29 04:39:21;;;;;;;;;;;;;;;-142.75;100.00;78562.88;4994354;28;19975;-67
2022/01/29 04:41:47;;;;;;;;;;;;;;;-142.75;100.00;78551.06;4996599;28;19925;-68
2022/01/29 04:44:12;;;;;;;;;;;;;;;-142.75;100.00;78535.31;5003433;28;19917;-69
2022/01/29 04:46:37;;;;;;;;;;;;;;;-142.75;100.00;78541.22;5005285;28;20427;-69
2022/01/29 04:49:02;;;;;;;;;;;;;;;-142.75;100.00;78541.22;4996905;28;19993;-68
2022/01/29 04:51:28;;;;;;;;;;;;;;;-142.75;100.00;78543.19;5004651;28;19913;-68
2022/01/29 04:53:53;;;;;;;;;;;;;;;-142.75;100.00;78531.38;4995508;28;20433;-68
2022/01/29 04:56:18;;;;;;;;;;;;;;;-142.75;100.00;78527.44;5007962;28;20132;-68
2022/01/29 04:58:43;;;;;;;;;;;;;;;-142.75;100.00;78521.53;5012577;28;20290;-68
2022/01/29 05:01:08;;;;;;;;;;;;;;;-142.75;100.00;78523.50;4996703;28;19922;-69
2022/01/29 05:03:34;;;;;;;;;;;;;;;-142.75;100.00;78527.44;5015088;28;19914;-69
2022/01/29 05:05:59;;;;;;;;;;;;;;;-142.75;100.00;78527.44;4998067;28;19913;-69
2022/01/29 05:08:24;;;;;;;;;;;;;;;-142.75;100.00;78513.66;5005267;28;19914;-69
2022/01/29 05:10:50;;;;;;;;;;;;;;;-142.75;100.00;78519.56;5009865;28;19920;-68
2022/01/29 05:13:20;;;;;;;;;;;;;;;-142.75;100.00;78515.63;4997729;28;19914;-69
2022/01/29 05:29:21;;;;;;;;;;;;;;;-142.75;100.00;78503.81;5005925;28;19936;-68
2022/01/29 05:31:51;;;;;;;;;;;;;;;-142.75;100.00;78509.72;5004736;28;19913;-69
2022/01/29 05:34:16;;;;;;;;;;;;;;;-142.75;100.00;78515.63;5010348;28;20037;-68
2022/01/29 05:36:41;;;;;;;;;;;;;;;-142.75;100.00;78509.72;5009595;28;20081;-68
2022/01/29 05:39:06;;;;;;;;;;;;;;;-142.75;100.00;78513.66;4997595;28;19928;-68
2022/01/29 05:41:32;;;;;;;;;;;;;;;-142.75;100.00;78505.78;4997037;28;19952;-68
2022/01/29 05:43:57;;;;;;;;;;;;;;;-142.75;100.00;78511.69;4999678;28;19914;-67
2022/01/29 05:46:22;;;;;;;;;;;;;;;-142.75;100.00;78505.78;5006285;28;19917;-68
2022/01/29 05:48:47;;;;;;;;;;;;;;;-142.75;100.00;78501.84;5006498;28;19914;-68
2022/01/29 05:51:12;;;;;;;;;;;;;;;-142.75;100.00;78499.88;4994792;28;20268;-68
2022/01/29 05:53:38;;;;;;;;;;;;;;;-142.75;100.00;78499.88;5011641;28;19971;-70
2022/01/29 05:56:03;;;;;;;;;;;;;;;-142.75;100.00;78491.97;5002087;28;19917;-68
2022/01/29 05:58:29;;;;;;;;;;;;;;;-142.75;100.00;78493.97;5006704;28;19960;-69
2022/01/29 06:00:54;;;;;;;;;;;;;;;-142.75;100.00;78491.97;5000162;28;19975;-67
2022/01/29 06:03:19;;;;;;;;;;;;;;;-142.75;100.00;78493.97;4993195;28;19914;-68
2022/01/29 06:05:45;;;;;;;;;;;;;;;-142.75;100.00;78488.03;4995318;28;19914;-68
2022/01/29 06:08:10;;;;;;;;;;;;;;;-142.75;100.00;78484.09;5002881;28;19922;-69
2022/01/29 06:10:35;;;;;;;;;;;;;;;-142.75;100.00;78488.03;5011434;28;20016;-68
2022/01/29 06:13:02;;;;;;;;;;;;;;;-142.75;100.00;78482.13;5012584;28;19921;-68
2022/01/29 06:15:27;;;;;;;;;;;;;;;-142.75;100.00;78476.22;4999790;28;19964;-68
2022/01/29 06:17:52;;;;;;;;;;;;;;;-142.75;100.00;78472.28;5003534;28;20371;-68
2022/01/29 06:20:17;;;;;;;;;;;;;;;-142.75;100.00;78480.16;4992846;28;19913;-67
2022/01/29 06:22:43;;;;;;;;;;;;;;;-142.75;100.00;78478.19;4999195;28;20284;-68
2022/01/29 06:25:08;;;;;;;;;;;;;;;-142.75;100.00;78476.22;5012060;28;19948;-69
2022/01/29 06:27:34;;;;;;;;;;;;;;;-142.75;100.00;78476.22;5000561;28;19913;-68
2022/01/29 06:29:59;;;;;;;;;;;;;;;-142.75;100.00;78474.25;5003439;28;19922;-68
2022/01/29 06:32:24;;;;;;;;;;;;;;;-142.75;100.00;78474.25;5000799;28;19914;-66
2022/01/29 06:34:49;;;;;;;;;;;;;;;-142.75;100.00;78470.31;5004604;28;19913;-68
2022/01/29 06:37:15;;;;;;;;;;;;;;;-142.75;100.00;78466.38;4999508;28;19929;-68
2022/01/29 06:39:40;;;;;;;;;;;;;;;-142.75;100.00;78466.38;4992422;28;19936;-67
2022/01/29 06:42:05;;;;;;;;;;;;;;;-142.75;100.00;78464.41;5008927;28;20399;-69
2022/01/29 06:44:30;;;;;;;;;;;;;;;-142.75;100.00;78452.59;5003962;28;19913;-68
2022/01/29 06:46:55;;;;;;;;;;;;;;;-142.75;100.00;78448.66;5002492;28;19951;-70
2022/01/29 06:49:21;;;;;;;;;;;;;;;-142.75;100.00;78452.59;4999162;28;19976;-68
2022/01/29 06:51:46;;;;;;;;;;;;;;;-142.75;100.00;78456.53;4996440;28;19952;-68
2022/01/29 06:54:11;;;;;;;;;;;;;;;-142.75;100.00;78446.69;5003302;28;20004;-67
2022/01/29 06:56:36;;;;;;;;;;;;;;;-142.75;100.00;78440.78;5004709;28;20360;-69
2022/01/29 06:59:02;;;;;;;;;;;;;;;-142.75;100.00;78444.72;5007491;28;19913;-68
2022/01/29 07:01:27;;;;;;;;;;;;;;;-142.75;100.00;78454.56;5002104;28;19920;-68
2022/01/29 07:03:52;;;;;;;;;;;;;;;-142.75;100.00;78448.66;5009110;28;19964;-68
2022/01/29 07:06:17;;;;;;;;;;;;;;;-142.75;100.00;78444.72;5000616;28;19913;-68
2022/01/29 07:08:42;;;;;;;;;;;;;;;-142.75;100.00;78444.72;4997862;28;19914;-68
2022/01/29 07:11:08;;;;;;;;;;;;;;;-142.75;100.00;78452.59;4999483;28;19922;-68
2022/01/29 07:13:34;;;;;;;;;;;;;;;-142.75;100.00;78442.75;4998020;28;19913;-68
2022/01/29 07:15:59;;;;;;;;;;;;;;;-142.75;100.00;78432.91;5003299;28;19917;-69
2022/01/29 07:18:25;;;;;;;;;;;;;;;-142.75;100.00;78434.88;4974356;28;19920;-68
2022/01/29 07:20:50;;;;;;;;;;;;;;;-142.75;100.00;78436.84;5002399;28;20359;-68
2022/01/29 07:23:15;;;;;;;;;;;;;;;-142.75;100.00;78427.00;5006071;28;19957;-69
2022/01/29 07:25:40;;;;;;;;;;;;;;;-142.75;100.00;78421.09;5006519;28;19920;-69
2022/01/29 07:28:05;;;;;;;;;;;;;;;-142.75;100.00;78428.97;5001135;28;19937;-68
2022/01/29 07:30:31;;;;;;;;;;;;;;;-142.75;100.00;78432.91;4995883;28;19920;-68
2022/01/29 07:32:56;;;;;;;;;;;;;;;-142.75;100.00;78428.97;4998384;28;19979;-68
2022/01/29 07:35:21;;;;;;;;;;;;;;;-142.75;100.00;78421.09;5004408;28;19914;-67
2022/01/29 07:37:46;;;;;;;;;;;;;;;-142.75;100.00;78425.03;5000200;28;19933;-69
2022/01/29 07:40:11;;;;;;;;;;;;;;;-142.75;100.00;78425.03;5012497;28;19921;-67
2022/01/29 07:42:37;;;;;;;;;;;;;;;-142.75;100.00;78417.16;4997257;28;20417;-67
2022/01/29 07:45:02;;;;;;;;;;;;;;;-142.75;100.00;78411.25;5002341;28;19932;-68
2022/01/29 07:47:28;;;;;;;;;;;;;;;-142.75;100.00;78417.16;5000050;28;19921;-68
2022/01/29 07:49:53;;;;;;;;;;;;;;;-142.75;100.00;78415.19;4996392;28;19914;-67
2022/01/29 07:52:18;;;;;;;;;;;;;;;-142.75;100.00;78417.16;5009429;28;19913;-69
2022/01/29 07:54:43;;;;;;;;;;;;;;;-142.75;100.00;78409.28;5003062;28;19959;-67
2022/01/29 07:57:08;;;;;;;;;;;;;;;-142.75;100.00;78403.38;4996132;28;19926;-70
2022/01/29 07:59:33;;;;;;;;;;;;;;;-142.75;100.00;78397.44;5010117;28;20561;-68
2022/01/29 08:01:59;;;;;;;;;;;;;;;-142.75;100.00;78389.56;4998206;28;20004;-68
2022/01/29 08:04:24;;;;;;;;;;;;;;;-142.75;100.00;78383.66;5010613;28;20552;-68
2022/01/29 08:06:50;;;;;;;;;;;;;;;-142.75;100.00;78381.69;4997675;28;19914;-68
2022/01/29 08:09:15;;;;;;;;;;;;;;;-142.75;100.00;78377.75;5008861;28;19949;-69
2022/01/29 08:11:40;;;;;;;;;;;;;;;-142.75;100.00;78377.75;5000873;28;19913;-68
2022/01/29 08:14:05;;;;;;;;;;;;;;;-142.75;100.00;78365.94;5006038;28;20385;-68
2022/01/29 08:16:31;;;;;;;;;;;;;;;-142.75;100.00;78362.00;5002055;28;20363;-66
2022/01/29 08:18:56;;;;;;;;;;;;;;;-142.75;100.00;78360.03;5006711;28;19953;-68
2022/01/29 08:21:21;;;;;;;;;;;;;;;-142.75;100.00;78350.19;5009277;28;19914;-67
2022/01/29 08:23:47;;;;;;;;;;;;;;;-142.75;100.00;78348.22;5007177;28;19960;-68
2022/01/29 08:26:12;;;;;;;;;;;;;;;-142.75;100.00;78338.38;5002914;28;19977;-68
2022/01/29 08:28:38;;;;;;;;;;;;;;;-142.75;100.00;78340.34;5012461;28;19959;-67
2022/01/29 08:31:03;;;;;;;;;;;;;;;-142.75;100.00;78344.28;4995010;28;19971;-67
2022/01/29 08:33:29;;;;;;;;;;;;;;;-142.75;100.00;78338.38;4988218;28;19936;-67
2022/01/29 08:35:54;;;;;;;;;;;;;;;-142.75;100.00;78338.38;5005626;28;20390;-68
2022/01/29 08:38:20;;;;;;;;;;;;;;;-142.75;100.00;78334.44;4997204;28;19914;-68
2022/01/29 08:40:45;;;;;;;;;;;;;;;-142.75;100.00;78338.38;4998364;28;19920;-68
2022/01/29 08:43:11;;;;;;;;;;;;;;;-142.75;100.00;78322.63;5014170;28;19917;-67
2022/01/29 08:45:36;;;;;;;;;;;;;;;-142.75;100.00;78330.50;5013656;28;19999;-69
2022/01/29 08:48:01;;;;;;;;;;;;;;;-142.75;100.00;78318.69;5007834;28;19913;-66
2022/01/29 08:50:26;;;;;;;;;;;;;;;-142.75;100.00;78318.69;4985052;28;19914;-68
2022/01/29 08:52:51;;;;;;;;;;;;;;;-142.75;100.00;78320.66;5006895;28;19956;-68
2022/01/29 08:55:17;;;;;;;;;;;;;;;-142.75;100.00;78322.63;4989196;28;19913;-67
2022/01/29 08:57:42;;;;;;;;;;;;;;;-142.75;100.00;78318.69;5011043;28;19949;-67
2022/01/29 09:00:09;;;;;;;;;;;;;;;-142.75;100.00;78326.56;4993454;28;19921;-67
2022/01/29 09:02:34;;;;;;;;;;;;;;;-142.75;100.00;78322.63;4994083;28;20004;-67
2022/01/29 09:04:59;;;;;;;;;;;;;;;-142.75;100.00;78316.72;4993858;28;20000;-67
2022/01/29 09:07:26;;;;;;;;;;;;;;;-142.75;100.00;78318.69;4999308;28;20000;-67
2022/01/29 09:09:51;;;;;;;;;;;;;;;-142.75;100.00;78324.59;5012589;28;19944;-68
2022/01/29 09:12:16;;;;;;;;;;;;;;;-142.75;100.00;78338.38;5002259;28;20402;-67
2022/01/29 09:14:42;;;;;;;;;;;;;;;-142.75;100.00;78340.34;4993362;28;19956;-67
2022/01/29 09:17:07;;;;;;;;;;;;;;;-142.75;100.00;78330.50;4992914;28;19921;-67
2022/01/29 09:19:33;;;;;;;;;;;;;;;-142.75;100.00;78320.66;4993007;28;19917;-67
2022/01/29 09:21:58;;;;;;;;;;;;;;;-142.75;100.00;78318.69;5008067;28;20330;-67
2022/01/29 09:24:23;;;;;;;;;;;;;;;-142.75;100.00;78320.66;5007260;28;19924;-67
2022/01/29 09:26:49;;;;;;;;;;;;;;;-142.75;100.00;78299.00;5012335;28;19914;-68
2022/01/29 09:29:14;;;;;;;;;;;;;;;-142.75;100.00;78293.06;4985292;28;19920;-68
2022/01/29 09:31:39;;;;;;;;;;;;;;;-142.75;100.00;78277.31;4995413;28;19919;-68
2022/01/29 09:34:04;;;;;;;;;;;;;;;-142.75;100.00;78259.59;5008935;28;19955;-68
2022/01/29 09:36:30;;;;;;;;;;;;;;;-142.75;100.00;78228.09;5011762;28;20004;-69
2022/01/29 09:38:55;;;;;;;;;;;;;;;-142.75;100.00;78170.97;5004816;28;19999;-68
2022/01/29 09:41:23;;;;;;;;;;;;;;;-142.75;100.00;78107.97;5003258;28;19913;-68
2022/01/29 09:43:48;;;;;;;;;;;;;;;-142.75;100.00;78060.72;4993574;28;20434;-71
2022/01/29 09:46:16;;;;;;;;;;;;;;;-142.75;100.00;78054.81;4993418;28;19918;-68
2022/01/29 09:48:42;;;;;;;;;;;;;;;-142.75;100.00;78011.47;4995921;28;19920;-69
2022/01/29 09:51:12;;;;;;;;;;;;;;;-142.75;100.00;77952.41;5012896;28;19919;-70
2022/01/29 09:53:37;;;;;;;;;;;;;;;-142.75;100.00;77901.19;4997119;28;19960;-68
2022/01/29 09:56:03;;;;;;;;;;;;;;;-142.75;100.00;77891.34;5012336;28;19929;-69
2022/01/29 09:58:28;;;;;;;;;;;;;;;-142.75;100.00;77826.38;4992368;28;19919;-68
2022/01/29 10:00:53;;;;;;;;;;;;;;;-142.75;100.00;77796.84;5008588;28;19920;-69
2022/01/29 10:03:19;;;;;;;;;;;;;;;-142.75;100.00;77737.78;5007374;28;19913;-68
2022/01/29 10:05:54;;;;;;;;;;;;;;;-142.75;100.00;77708.22;5011831;28;19919;-68
2022/01/29 10:08:20;;;;;;;;;;;;;;;-142.75;100.00;77692.47;5004109;28;19960;-68
2022/01/29 10:10:50;;;;;;;;;;;;;;;-142.75;100.00;77653.09;5012101;28;19917;-66
2022/01/29 10:13:22;;;;;;;;;;;;;;;-142.75;100.00;77657.03;5012333;28;20363;-69
2022/01/29 10:15:49;;;;;;;;;;;;;;;-142.75;100.00;77615.69;5008583;28;19913;-68
2022/01/29 10:18:23;;;;;;;;;;;;;;;-142.75;100.00;77619.63;4991365;28;19914;-70
2022/01/29 10:20:50;;;;;;;;;;;;;;;-142.75;100.00;77578.28;4998937;28;20416;-68
2022/01/29 10:23:15;;;;;;;;;;;;;;;-142.75;100.00;77534.97;5011131;28;20291;-68
2022/01/29 10:25:44;;;;;;;;;;;;;;;-142.75;100.00;77527.09;5012116;28;19913;-68
2022/01/29 10:28:16;;;;;;;;;;;;;;;-142.75;100.00;77546.78;5002216;28;19913;-69
2022/01/29 10:30:48;;;;;;;;;;;;;;;-142.75;100.00;77489.69;4992679;28;19913;-68
2022/01/29 10:33:20;;;;;;;;;;;;;;;-142.75;100.00;77462.13;4992554;28;19918;-68
2022/01/29 10:35:50;;;;;;;;;;;;;;;-142.75;100.00;77471.97;4992475;28;19926;-68
2022/01/29 10:38:38;;;;;;;;;;;;;;;-142.75;100.00;77540.88;4992246;28;19914;-68
2022/01/29 10:41:26;;;;;;;;;;;;;;;-142.75;100.00;77513.31;4985569;28;19929;-66
2022/01/29 10:43:54;;;;;;;;;;;;;;;-142.75;100.00;77596.00;4992516;28;19945;-68
2022/01/29 10:46:27;;;;;;;;;;;;;;;-142.75;100.00;77611.75;4990996;28;19921;-68
2022/01/29 10:48:53;;;;;;;;;;;;;;;-142.75;100.00;77627.50;4992122;28;19921;-68
2022/01/29 10:51:18;;;;;;;;;;;;;;;-142.75;100.00;77682.63;4974768;28;19921;-68
2022/01/29 10:53:43;;;;;;;;;;;;;;;-142.75;100.00;77716.09;4992262;28;19921;-68
2022/01/29 10:56:09;;;;;;;;;;;;;;;-142.75;100.00;77743.69;4992173;28;20303;-68
2022/01/29 10:58:40;;;;;;;;;;;;;;;-142.75;100.00;77787.00;4991876;28;19913;-68
2022/01/29 11:01:09;;;;;;;;;;;;;;;-142.75;100.00;77814.56;4992141;28;19913;-67
2022/01/29 11:03:34;;;;;;;;;;;;;;;-142.75;100.00;77832.28;4990831;28;19957;-67
2022/01/29 11:06:00;;;;;;;;;;;;;;;-142.75;100.00;77877.56;4991969;28;20376;-68
2022/01/29 11:08:25;;;;;;;;;;;;;;;-142.75;100.00;77893.31;4991880;28;19919;-68
2022/01/29 11:10:51;;;;;;;;;;;;;;;-142.75;100.00;77916.97;4992006;28;20008;-67
2022/01/29 11:13:16;;;;;;;;;;;;;;;-142.75;100.00;77924.84;4991688;28;19935;-68
2022/01/29 11:15:41;;;;;;;;;;;;;;;-142.75;100.00;77936.66;4989668;28;20033;-67
2022/01/29 11:18:06;;;;;;;;;;;;;;;-142.75;100.00;77944.53;4991582;28;19961;-68
2022/01/29 11:20:32;;;;;;;;;;;;;;;-142.75;100.00;77942.56;4992006;28;19921;-68
2022/01/29 11:22:58;;;;;;;;;;;;;;;-142.75;100.00;77956.34;4991966;28;19914;-68
2022/01/29 11:25:24;;;;;;;;;;;;;;;-142.75;100.00;77958.31;4991823;28;20306;-68
2022/01/29 11:28:10;;;;;;;;;;;;;;;-142.75;100.00;77956.34;4991783;28;19953;-67
2022/01/29 11:30:35;;;;;;;;;;;;;;;-142.75;100.00;77954.38;4974414;28;19917;-68
2022/01/29 11:33:00;;;;;;;;;;;;;;;-142.75;100.00;77960.28;4991726;28;19914;-67
2022/01/29 11:35:28;;;;;;;;;;;;;;;-142.75;100.00;77964.22;4990387;28;19952;-68
2022/01/29 11:37:57;;;;;;;;;;;;;;;-142.75;100.00;77928.78;4991411;28;20311;-68
2022/01/29 11:40:24;;;;;;;;;;;;;;;-142.75;100.00;77915.00;4991746;28;20012;-68
2022/01/29 11:43:09;;;;;;;;;;;;;;;-142.75;100.00;77936.66;4991913;28;19914;-68
2022/01/29 11:45:38;;;;;;;;;;;;;;;-142.75;100.00;77934.69;4991576;28;19922;-68
2022/01/29 11:48:03;;;;;;;;;;;;;;;-142.75;100.00;77911.06;4991408;28;20012;-67
2022/01/29 11:50:28;;;;;;;;;;;;;;;-142.75;100.00;77915.00;4991667;28;19949;-67
2022/01/29 11:52:54;;;;;;;;;;;;;;;-142.75;100.00;77913.03;4990381;28;20004;-68
2022/01/29 11:55:32;;;;;;;;;;;;;;;-142.75;100.00;77897.25;4991481;28;19914;-68
2022/01/29 11:58:16;;;;;;;;;;;;;;;-142.75;100.00;77909.06;4991266;28;19980;-67
2022/01/29 12:00:41;;;;;;;;;;;;;;;-142.75;100.00;77918.94;4991489;28;19926;-68
2022/01/29 12:03:07;;;;;;;;;;;;;;;-142.75;100.00;77913.03;4991498;28;19968;-68
2022/01/29 12:05:51;;;;;;;;;;;;;;;-142.75;100.00;77901.19;4989531;28;19925;-66
2022/01/29 12:08:19;;;;;;;;;;;;;;;-142.75;100.00;77897.25;4991227;28;19913;-68
2022/01/29 12:10:52;;;;;;;;;;;;;;;-142.75;100.00;77889.38;4991568;28;19945;-69
2022/01/29 12:13:17;;;;;;;;;;;;;;;-142.75;100.00;77781.09;4989986;28;19953;-67
2022/01/29 12:15:43;;;;;;;;;;;;;;;-142.75;100.00;77767.31;4991333;28;19972;-69
2022/01/29 12:18:25;;;;;;;;;;;;;;;-142.75;100.00;77779.13;4973529;28;20327;-68
2022/01/29 12:20:50;;;;;;;;;;;;;;;-142.75;100.00;77798.81;4991487;28;19964;-68
2022/01/29 12:23:15;;;;;;;;;;;;;;;-142.75;100.00;77808.66;4991708;28;19948;-68
2022/01/29 12:25:41;;;;;;;;;;;;;;;-142.75;100.00;77812.59;4991969;28;19925;-68
2022/01/29 12:28:07;;;;;;;;;;;;;;;-142.75;100.00;77802.75;4994682;28;20024;-66
2022/01/29 12:30:32;;;;;;;;;;;;;;;-142.75;100.00;77822.44;4995006;28;20439;-68
2022/01/29 12:32:59;;;;;;;;;;;;;;;-142.75;100.00;77838.19;4994825;28;19956;-68